Time;durP1;ratioP1;P1;durP2;ratioP2;P2;SDS_P1;SDS_P2;PMS_P1;PMS_P2;Temp;Humidity;BMP_temperature;BMP_pressure;BME280_temperature;BME280_humidity;BME280_pressure;Samples;Min_cycle;Max_cycle;Signal;HPM_P1;HPM_P2
2022/02/19 00:00:26;;;;;;;;;;;;;;;16.58;40.40;98891.69;4902881;28;126826;-65
2022/02/19 00:02:52;;;;;;;;;;;;;;;16.57;40.42;98892.84;4905787;28;97854;-65
2022/02/19 00:05:19;;;;;;;;;;;;;;;16.56;40.35;98902.13;4903041;28;103533;-65
2022/02/19 00:07:44;;;;;;;;;;;;;;;16.54;40.41;98897.03;4904945;28;98383;-64
2022/02/19 00:10:11;;;;;;;;;;;;;;;16.54;40.27;98898.97;4901811;28;127652;-69
2022/02/19 00:12:37;;;;;;;;;;;;;;;16.54;40.29;98923.44;4903607;28;97913;-69
2022/02/19 00:15:04;;;;;;;;;;;;;;;16.52;40.18;98901.25;4902868;28;129069;-64
2022/02/19 00:17:30;;;;;;;;;;;;;;;16.50;40.27;98912.44;4904310;28;98495;-69
2022/02/19 00:19:56;;;;;;;;;;;;;;;16.49;40.12;98904.66;4900014;28;126634;-68
2022/02/19 00:22:22;;;;;;;;;;;;;;;16.49;40.18;98924.47;4903430;28;114015;-68
2022/02/19 00:24:48;;;;;;;;;;;;;;;16.47;40.16;98910.44;4908484;28;98902;-69
2022/02/19 00:27:14;;;;;;;;;;;;;;;16.47;40.07;98924.03;4922624;28;114837;-65
2022/02/19 00:29:40;;;;;;;;;;;;;;;16.44;39.99;98933.66;4920853;28;126092;-64
2022/02/19 00:32:06;;;;;;;;;;;;;;;16.44;39.99;98911.13;4922304;28;104665;-65
2022/02/19 00:34:32;;;;;;;;;;;;;;;16.43;40.09;98947.63;4922592;28;128087;-65
2022/02/19 00:36:59;;;;;;;;;;;;;;;16.41;39.85;98947.94;4921084;28;124723;-65
2022/02/19 00:39:25;;;;;;;;;;;;;;;16.40;39.86;98942.84;4920608;28;125709;-68
2022/02/19 00:41:51;;;;;;;;;;;;;;;16.38;39.75;98951.34;4922978;28;97822;-68
2022/02/19 00:44:17;;;;;;;;;;;;;;;16.37;39.88;98944.31;4920932;28;127358;-65
2022/02/19 00:46:42;;;;;;;;;;;;;;;16.36;39.77;98956.34;4922070;28;98405;-65
2022/02/19 00:49:08;;;;;;;;;;;;;;;16.35;39.70;98954.75;4924762;28;126869;-68
2022/02/19 00:51:34;;;;;;;;;;;;;;;16.33;39.64;98978.75;4922932;28;117657;-69
2022/02/19 00:54:00;;;;;;;;;;;;;;;16.33;39.55;98970.59;4906793;28;128311;-69
2022/02/19 00:56:26;;;;;;;;;;;;;;;16.32;39.60;98973.69;4920130;28;120427;-65
2022/02/19 00:58:52;;;;;;;;;;;;;;;16.31;39.34;98982.94;4921541;28;98338;-64
2022/02/19 01:01:18;;;;;;;;;;;;;;;16.29;39.35;98961.56;4922553;28;99015;-69
2022/02/19 01:03:44;;;;;;;;;;;;;;;16.28;39.29;98967.34;4923624;28;98330;-68
2022/02/19 01:06:10;;;;;;;;;;;;;;;16.25;39.18;98976.16;4923946;28;128158;-68
2022/02/19 01:08:36;;;;;;;;;;;;;;;16.24;39.29;98969.94;4924742;28;107097;-65
2022/02/19 01:11:02;;;;;;;;;;;;;;;16.23;39.40;98976.53;4924168;28;117040;-65
2022/02/19 01:13:28;;;;;;;;;;;;;;;16.22;39.27;98969.47;4921738;28;128932;-70
2022/02/19 01:15:54;;;;;;;;;;;;;;;16.21;39.43;98989.66;4904888;28;127961;-65
2022/02/19 01:18:20;;;;;;;;;;;;;;;16.20;39.35;99004.38;4902095;28;99883;-65
2022/02/19 01:20:46;;;;;;;;;;;;;;;16.18;39.33;98995.75;4886239;28;117932;-65
2022/02/19 01:23:12;;;;;;;;;;;;;;;16.19;39.05;99013.66;4907466;28;98335;-65
2022/02/19 01:25:39;;;;;;;;;;;;;;;16.16;39.07;98993.38;4907628;28;127984;-65
2022/02/19 01:28:05;;;;;;;;;;;;;;;16.15;39.29;99008.13;4924676;28;97857;-65
2022/02/19 01:30:31;;;;;;;;;;;;;;;16.13;38.91;98991.34;4923874;28;112605;-69
2022/02/19 01:32:57;;;;;;;;;;;;;;;16.12;39.24;99011.50;4915781;28;128043;-64
2022/02/19 01:35:23;;;;;;;;;;;;;;;16.12;39.05;99011.50;4905017;28;107673;-69
2022/02/19 01:37:49;;;;;;;;;;;;;;;16.11;38.98;99012.66;4904823;28;126371;-69
2022/02/19 01:40:15;;;;;;;;;;;;;;;16.10;39.04;99013.75;4904184;28;117846;-69
2022/02/19 01:42:41;;;;;;;;;;;;;;;16.10;38.87;99007.53;4910912;28;126619;-68
2022/02/19 01:45:07;;;;;;;;;;;;;;;16.08;38.73;99016.03;4916619;28;128225;-69
2022/02/19 01:47:36;;;;;;;;;;;;;;;16.08;38.63;98988.06;4906159;28;98496;-69
2022/02/19 01:50:02;;;;;;;;;;;;;;;16.07;38.59;99010.91;4905126;28;97872;-65
2022/02/19 01:52:28;;;;;;;;;;;;;;;16.05;38.75;99010.47;4905132;28;116907;-69
2022/02/19 01:54:54;;;;;;;;;;;;;;;16.04;38.64;99038.81;4903858;28;127998;-64
2022/02/19 01:57:20;;;;;;;;;;;;;;;16.03;38.72;99037.19;4907531;28;127128;-68
2022/02/19 01:59:46;;;;;;;;;;;;;;;16.02;38.43;99035.63;4923401;28;98022;-69
2022/02/19 02:02:13;;;;;;;;;;;;;;;16.01;38.41;99015.81;4922199;28;128815;-68
2022/02/19 02:04:41;;;;;;;;;;;;;;;16.01;38.33;99020.44;4905000;28;98917;-64
2022/02/19 02:07:07;;;;;;;;;;;;;;;16.00;38.51;99029.75;4905737;28;98342;-65
2022/02/19 02:09:36;;;;;;;;;;;;;;;15.99;38.33;99018.03;4918995;28;108418;-65
2022/02/19 02:12:02;;;;;;;;;;;;;;;15.98;38.43;99048.28;4903905;28;99155;-64
2022/02/19 02:14:28;;;;;;;;;;;;;;;15.96;38.17;99029.63;4906402;28;97918;-65
2022/02/19 02:16:54;;;;;;;;;;;;;;;15.95;38.11;99049.75;4905905;28;126823;-65
2022/02/19 02:19:20;;;;;;;;;;;;;;;15.94;38.34;99064.47;4921456;28;112442;-69
2022/02/19 02:21:46;;;;;;;;;;;;;;;15.93;38.43;99058.25;4924675;28;99103;-68
2022/02/19 02:24:12;;;;;;;;;;;;;;;15.91;38.13;99041.47;4924113;28;98428;-69
2022/02/19 02:26:39;;;;;;;;;;;;;;;15.90;38.09;99042.59;4921959;28;129187;-65
2022/02/19 02:29:05;;;;;;;;;;;;;;;15.89;38.19;99049.19;4924267;28;98222;-69
2022/02/19 02:31:31;;;;;;;;;;;;;;;15.87;38.16;99037.84;4923001;28;121225;-68
2022/02/19 02:33:58;;;;;;;;;;;;;;;15.88;38.07;99054.97;4922930;28;128413;-68
2022/02/19 02:36:24;;;;;;;;;;;;;;;15.85;38.01;99042.03;4922060;28;98345;-64
2022/02/19 02:38:53;;;;;;;;;;;;;;;15.83;38.07;99026.06;4924109;28;115267;-69
2022/02/19 02:41:19;;;;;;;;;;;;;;;15.83;38.00;99020.63;4911099;28;98389;-62
2022/02/19 02:43:45;;;;;;;;;;;;;;;15.83;37.97;99036.94;4931383;28;98711;-63
2022/02/19 02:46:11;;;;;;;;;;;;;;;15.80;37.74;99053.91;4903335;28;127336;-68
2022/02/19 02:48:36;;;;;;;;;;;;;;;15.79;38.00;99044.16;4903426;28;117020;-64
2022/02/19 02:51:03;;;;;;;;;;;;;;;15.78;37.64;99053.44;4903156;28;127009;-64
2022/02/19 02:53:29;;;;;;;;;;;;;;;15.78;37.83;99037.16;4905069;28;98693;-67
2022/02/19 02:55:55;;;;;;;;;;;;;;;15.77;37.62;99054.59;4902750;28;127358;-64
2022/02/19 02:58:21;;;;;;;;;;;;;;;15.77;37.83;99054.59;4904014;28;111442;-68
2022/02/19 03:00:47;;;;;;;;;;;;;;;15.76;37.80;99073.91;4903478;28;129168;-67
2022/02/19 03:03:13;;;;;;;;;;;;;;;15.76;37.84;99071.19;4905054;28;127393;-67
2022/02/19 03:05:40;;;;;;;;;;;;;;;15.74;37.74;99044.38;4917776;28;125424;-67
2022/02/19 03:08:06;;;;;;;;;;;;;;;15.75;37.72;99075.84;4906374;28;98024;-68
2022/02/19 03:10:32;;;;;;;;;;;;;;;15.74;37.80;99085.13;4922027;28;127035;-63
2022/02/19 03:12:58;;;;;;;;;;;;;;;15.74;37.52;99063.41;4922397;28;128669;-64
2022/02/19 03:15:24;;;;;;;;;;;;;;;15.73;37.81;99078.13;4922966;28;126716;-64
2022/02/19 03:17:50;;;;;;;;;;;;;;;15.71;37.61;99088.50;4918528;28;98016;-63
2022/02/19 03:20:18;;;;;;;;;;;;;;;15.71;37.54;99100.16;4934251;28;98943;-67
2022/02/19 03:22:44;;;;;;;;;;;;;;;15.71;37.94;99116.47;4925226;28;98561;-67
2022/02/19 03:25:12;;;;;;;;;;;;;;;15.69;37.74;99105.16;4923044;28;98782;-67
2022/02/19 03:27:38;;;;;;;;;;;;;;;15.70;37.65;99108.66;4924634;28;97789;-64
2022/02/19 03:30:05;;;;;;;;;;;;;;;15.68;37.73;99113.66;4921940;28;126854;-68
2022/02/19 03:32:30;;;;;;;;;;;;;;;15.67;37.80;99115.53;4916382;28;124446;-64
2022/02/19 03:34:56;;;;;;;;;;;;;;;15.67;37.60;99115.53;4902665;28;127700;-67
2022/02/19 03:37:22;;;;;;;;;;;;;;;15.67;37.74;99140.00;4933869;28;116913;-67
2022/02/19 03:39:48;;;;;;;;;;;;;;;15.65;37.77;99136.81;4921108;28;128599;-64
2022/02/19 03:42:14;;;;;;;;;;;;;;;15.64;37.77;99121.63;4923293;28;127446;-68
2022/02/19 03:44:40;;;;;;;;;;;;;;;15.64;37.64;99142.53;4922742;28;97936;-64
2022/02/19 03:47:06;;;;;;;;;;;;;;;15.62;37.75;99151.03;4922692;28;117896;-68
2022/02/19 03:49:32;;;;;;;;;;;;;;;15.62;37.37;99164.63;4920422;28;112025;-67
2022/02/19 03:51:58;;;;;;;;;;;;;;;15.60;37.88;99152.47;4917540;28;121257;-68
2022/02/19 03:54:24;;;;;;;;;;;;;;;15.59;37.53;99148.19;4901798;28;128086;-68
2022/02/19 03:56:50;;;;;;;;;;;;;;;15.58;37.63;99173.75;4903631;28;116683;-64
2022/02/19 03:59:16;;;;;;;;;;;;;;;15.56;37.55;99176.81;4903086;28;117104;-64
2022/02/19 04:01:42;;;;;;;;;;;;;;;15.55;37.67;99174.41;4905295;28;98650;-68
2022/02/19 04:04:08;;;;;;;;;;;;;;;15.54;37.60;99184.50;4911518;28;125560;-68
2022/02/19 04:06:34;;;;;;;;;;;;;;;15.53;37.68;99182.91;4919617;28;118193;-68
2022/02/19 04:09:00;;;;;;;;;;;;;;;15.53;37.48;99168.53;4920228;28;128039;-63
2022/02/19 04:11:26;;;;;;;;;;;;;;;15.51;37.61;99195.22;4919839;28;99510;-63
2022/02/19 04:13:52;;;;;;;;;;;;;;;15.49;37.61;99195.56;4919002;28;124186;-63
2022/02/19 04:16:17;;;;;;;;;;;;;;;15.47;37.58;99214.88;4922465;28;117591;-63
2022/02/19 04:18:43;;;;;;;;;;;;;;;15.45;37.49;99206.28;4908303;28;127952;-67
2022/02/19 04:21:09;;;;;;;;;;;;;;;15.44;37.56;99207.41;4904835;28;101598;-68
2022/02/19 04:23:35;;;;;;;;;;;;;;;15.43;37.30;99205.00;4914972;28;102058;-67
2022/02/19 04:26:01;;;;;;;;;;;;;;;15.41;37.46;99215.41;4905688;28;117875;-68
2022/02/19 04:28:27;;;;;;;;;;;;;;;15.41;37.50;99212.69;4906871;28;110599;-64
2022/02/19 04:30:54;;;;;;;;;;;;;;;15.40;37.24;99238.25;4907127;28;98615;-68
2022/02/19 04:33:20;;;;;;;;;;;;;;;15.39;37.23;99244.81;4925182;28;128533;-68
2022/02/19 04:35:46;;;;;;;;;;;;;;;15.38;37.39;99237.78;4925597;28;97780;-64
2022/02/19 04:38:13;;;;;;;;;;;;;;;15.36;37.33;99251.69;4915811;28;113392;-68
2022/02/19 04:40:39;;;;;;;;;;;;;;;15.36;37.14;99248.16;4905623;28;127710;-64
2022/02/19 04:43:04;;;;;;;;;;;;;;;15.35;37.12;99250.09;4906261;28;113518;-64
2022/02/19 04:45:31;;;;;;;;;;;;;;;15.33;37.52;99238.00;4888644;28;98027;-64
2022/02/19 04:47:57;;;;;;;;;;;;;;;15.32;37.20;99253.44;4904906;28;98824;-64
2022/02/19 04:50:23;;;;;;;;;;;;;;;15.31;37.16;99260.00;4920177;28;124313;-64
2022/02/19 04:52:49;;;;;;;;;;;;;;;15.30;37.10;99263.06;4904591;28;107255;-64
2022/02/19 04:55:15;;;;;;;;;;;;;;;15.27;37.17;99275.38;4906244;28;97869;-64
2022/02/19 04:57:44;;;;;;;;;;;;;;;15.27;37.24;99277.28;4919563;28;128313;-64
2022/02/19 05:00:14;;;;;;;;;;;;;;;15.26;37.25;99289.28;4919655;28;98484;-64
2022/02/19 05:02:40;;;;;;;;;;;;;;;15.25;37.25;99290.38;4925121;28;118280;-68
2022/02/19 05:05:07;;;;;;;;;;;;;;;15.24;37.17;99303.16;4922778;28;115731;-64
2022/02/19 05:07:33;;;;;;;;;;;;;;;15.23;37.31;99304.28;4915430;28;111815;-68
2022/02/19 05:09:59;;;;;;;;;;;;;;;15.23;37.34;99307.78;4922618;28;99100;-68
2022/02/19 05:12:24;;;;;;;;;;;;;;;15.23;37.12;99309.72;4921034;28;128140;-64
2022/02/19 05:14:50;;;;;;;;;;;;;;;15.22;37.38;99306.22;4905093;28;117635;-64
2022/02/19 05:17:16;;;;;;;;;;;;;;;15.21;37.51;99303.84;4906760;28;127236;-68
2022/02/19 05:19:42;;;;;;;;;;;;;;;15.19;37.14;99315.00;4921439;28;115334;-68
2022/02/19 05:22:08;;;;;;;;;;;;;;;15.20;37.22;99321.22;4922629;28;126481;-68
2022/02/19 05:24:34;;;;;;;;;;;;;;;15.19;37.50;99322.34;4916393;28;97964;-64
2022/02/19 05:27:00;;;;;;;;;;;;;;;15.17;37.34;99328.13;4912137;28;112246;-67
2022/02/19 05:29:26;;;;;;;;;;;;;;;15.17;37.51;99314.53;4924525;28;118324;-68
2022/02/19 05:31:52;;;;;;;;;;;;;;;15.16;37.30;99336.56;4925079;28;114691;-68
2022/02/19 05:34:18;;;;;;;;;;;;;;;15.16;37.16;99352.84;4904801;28;114222;-64
2022/02/19 05:36:44;;;;;;;;;;;;;;;15.14;37.21;99353.19;4905559;28;98237;-64
2022/02/19 05:39:10;;;;;;;;;;;;;;;15.14;37.48;99365.97;4902476;28;128676;-67
2022/02/19 05:41:36;;;;;;;;;;;;;;;15.13;37.52;99370.59;4904280;28;128243;-64
2022/02/19 05:44:04;;;;;;;;;;;;;;;15.12;37.17;99341.84;4905162;28;113399;-64
2022/02/19 05:46:33;;;;;;;;;;;;;;;15.11;37.32;99383.69;4905467;28;98884;-68
2022/02/19 05:48:59;;;;;;;;;;;;;;;15.12;37.19;99379.03;4906901;28;98900;-64
2022/02/19 05:51:26;;;;;;;;;;;;;;;15.12;37.46;99392.63;4916046;28;127635;-64
2022/02/19 05:53:52;;;;;;;;;;;;;;;15.10;36.97;99392.94;4924273;28;97999;-64
2022/02/19 05:56:17;;;;;;;;;;;;;;;15.11;37.17;99393.75;4904477;28;128177;-64
2022/02/19 05:58:43;;;;;;;;;;;;;;;15.09;37.33;99401.41;4904388;28;128375;-68
2022/02/19 06:01:10;;;;;;;;;;;;;;;15.09;37.07;99404.09;4904164;28;125317;-64
2022/02/19 06:03:36;;;;;;;;;;;;;;;15.07;36.86;99398.22;4906087;28;97769;-64
2022/02/19 06:06:02;;;;;;;;;;;;;;;15.08;37.14;99464.94;4903076;28;100724;-64
2022/02/19 06:08:27;;;;;;;;;;;;;;;15.06;36.94;99423.78;4904499;28;124143;-64
2022/02/19 06:10:53;;;;;;;;;;;;;;;15.06;37.13;99437.34;4911471;28;124825;-68
2022/02/19 06:13:19;;;;;;;;;;;;;;;15.06;36.75;99431.91;4905053;28;117825;-64
2022/02/19 06:15:46;;;;;;;;;;;;;;;15.06;37.27;99434.63;4920332;28;127114;-68
2022/02/19 06:18:12;;;;;;;;;;;;;;;15.06;37.03;99438.13;4913791;28;98524;-64
2022/02/19 06:20:38;;;;;;;;;;;;;;;15.07;36.96;99457.91;4910843;28;98215;-68
2022/02/19 06:23:04;;;;;;;;;;;;;;;15.07;37.23;99468.78;4922510;28;117017;-68
2022/02/19 06:25:29;;;;;;;;;;;;;;;15.08;36.79;99449.44;4911398;28;125958;-68
2022/02/19 06:27:55;;;;;;;;;;;;;;;15.09;37.04;99488.25;4916016;28;128627;-65
2022/02/19 06:30:21;;;;;;;;;;;;;;;15.10;37.13;99474.38;4895783;28;127779;-64
2022/02/19 06:32:47;;;;;;;;;;;;;;;15.12;37.13;99460.47;4899732;28;115162;-65
2022/02/19 06:35:13;;;;;;;;;;;;;;;15.13;36.90;99500.88;4898894;28;128093;-65
2022/02/19 06:37:43;;;;;;;;;;;;;;;15.17;37.22;99514.59;4899941;28;127068;-64
2022/02/19 06:40:10;;;;;;;;;;;;;;;15.21;36.92;99505.50;4034580;28;10000320;-68
2022/02/19 06:42:37;;;;;;;;;;;;;;;15.27;37.17;99519.69;4920126;28;98209;-67
2022/02/19 06:45:04;;;;;;;;;;;;;;;15.32;36.93;99535.00;4917626;28;98000;-64
2022/02/19 06:47:30;;;;;;;;;;;;;;;15.34;36.82;99540.94;4935447;28;97940;-64
2022/02/19 06:49:56;;;;;;;;;;;;;;;15.35;37.14;99534.38;4931516;28;98376;-64
2022/02/19 06:52:22;;;;;;;;;;;;;;;15.39;37.09;99557.84;4936732;28;98420;-65
2022/02/19 06:54:48;;;;;;;;;;;;;;;15.41;36.81;99544.75;4937739;28;97961;-68
2022/02/19 06:57:15;;;;;;;;;;;;;;;15.44;36.99;99560.41;4935300;28;98209;-64
2022/02/19 06:59:41;;;;;;;;;;;;;;;15.45;37.05;99559.28;4935459;28;99169;-65
2022/02/19 07:02:07;;;;;;;;;;;;;;;15.49;36.85;99574.94;4934678;28;98380;-64
2022/02/19 07:04:33;;;;;;;;;;;;;;;15.52;36.92;99557.97;4913923;28;105276;-67
2022/02/19 07:06:59;;;;;;;;;;;;;;;15.55;36.93;99584.50;4916972;28;100480;-64
2022/02/19 07:09:25;;;;;;;;;;;;;;;15.57;37.21;99599.38;4927321;28;128561;-68
2022/02/19 07:11:54;;;;;;;;;;;;;;;15.59;37.16;99594.41;4936993;28;98928;-68
2022/02/19 07:14:20;;;;;;;;;;;;;;;15.62;36.84;99606.56;4935177;28;98776;-68
2022/02/19 07:16:46;;;;;;;;;;;;;;;15.63;36.93;99627.16;4937502;28;104337;-64
2022/02/19 07:19:13;;;;;;;;;;;;;;;15.65;37.17;99630.41;4925797;28;98520;-64
2022/02/19 07:21:39;;;;;;;;;;;;;;;15.67;36.96;99639.81;4921130;28;98678;-68
2022/02/19 07:24:05;;;;;;;;;;;;;;;15.71;36.92;99634.53;4918528;28;98191;-64
2022/02/19 07:26:32;;;;;;;;;;;;;;;15.75;36.92;99654.50;4916949;28;112898;-69
2022/02/19 07:28:58;;;;;;;;;;;;;;;15.82;37.24;99646.66;4917378;28;99096;-65
2022/02/19 07:31:24;;;;;;;;;;;;;;;15.84;37.28;99668.91;4916343;28;121138;-68
2022/02/19 07:33:49;;;;;;;;;;;;;;;15.87;37.30;99668.22;4916767;28;123530;-65
2022/02/19 07:36:15;;;;;;;;;;;;;;;15.86;37.43;99680.22;4916672;28;113962;-64
2022/02/19 07:38:41;;;;;;;;;;;;;;;15.87;37.09;99670.16;4931023;28;128720;-64
2022/02/19 07:41:07;;;;;;;;;;;;;;;15.88;37.29;99702.47;4927386;28;119153;-64
2022/02/19 07:43:33;;;;;;;;;;;;;;;15.88;37.43;99715.25;4930076;28;127642;-64
2022/02/19 07:46:00;;;;;;;;;;;;;;;15.90;37.32;99707.56;4915894;28;112832;-64
2022/02/19 07:48:26;;;;;;;;;;;;;;;15.93;37.38;99707.72;4914354;28;98634;-68
2022/02/19 07:59:06;;;;;;;;;;;;;;;16.06;37.38;99759.50;4930715;28;98182;-68
2022/02/19 08:01:32;;;;;;;;;;;;;;;16.07;37.53;99750.22;4933276;28;126199;-69
2022/02/19 08:03:58;;;;;;;;;;;;;;;16.05;37.33;99750.56;4917525;28;128794;-64
2022/02/19 08:06:24;;;;;;;;;;;;;;;16.05;37.53;99760.63;4931303;28;117074;-65
2022/02/19 08:08:50;;;;;;;;;;;;;;;16.06;37.54;99781.25;4927531;28;127713;-65
2022/02/19 08:11:16;;;;;;;;;;;;;;;16.05;37.33;99793.25;4913521;28;128584;-69
2022/02/19 08:13:42;;;;;;;;;;;;;;;16.03;37.54;99800.91;4917936;28;98189;-68
2022/02/19 08:16:10;;;;;;;;;;;;;;;16.02;37.63;99791.97;4915100;28;108405;-65
2022/02/19 08:18:37;;;;;;;;;;;;;;;16.03;37.75;99788.13;4935614;28;98374;-65
2022/02/19 08:21:03;;;;;;;;;;;;;;;16.07;37.60;99801.88;4933931;28;101214;-65
2022/02/19 08:23:29;;;;;;;;;;;;;;;16.10;37.76;99817.56;4923412;28;120228;-66
2022/02/19 08:25:55;;;;;;;;;;;;;;;16.09;37.72;99814.03;4917013;28;97953;-68
2022/02/19 08:28:21;;;;;;;;;;;;;;;16.09;37.82;99810.53;4927644;28;128616;-68
2022/02/19 08:30:47;;;;;;;;;;;;;;;16.13;37.57;99836.75;4935917;28;99215;-68
2022/02/19 08:33:13;;;;;;;;;;;;;;;16.15;37.59;99826.38;4936006;28;98232;-68
2022/02/19 08:35:39;;;;;;;;;;;;;;;16.16;37.47;99847.00;4930206;28;116710;-65
2022/02/19 08:38:07;;;;;;;;;;;;;;;16.18;37.60;99843.94;4925813;28;98605;-68
2022/02/19 08:40:33;;;;;;;;;;;;;;;16.20;37.66;99849.88;4919543;28;99260;-68
2022/02/19 08:42:59;;;;;;;;;;;;;;;16.22;37.62;99828.59;4932231;28;121286;-68
2022/02/19 08:45:25;;;;;;;;;;;;;;;16.26;37.35;99851.28;4916130;28;99818;-64
2022/02/19 08:47:53;;;;;;;;;;;;;;;16.33;37.38;99856.25;4916593;28;128833;-68
2022/02/19 08:50:19;;;;;;;;;;;;;;;16.33;37.38;99878.03;4934359;28;100057;-64
2022/02/19 08:52:47;;;;;;;;;;;;;;;16.32;37.60;99892.75;4935502;28;98553;-68
2022/02/19 08:55:14;;;;;;;;;;;;;;;16.35;37.60;99881.25;4935568;28;98692;-65
2022/02/19 08:57:40;;;;;;;;;;;;;;;16.35;37.54;99889.41;4927224;28;107074;-69
2022/02/19 09:00:08;;;;;;;;;;;;;;;16.36;37.58;99912.75;4935033;28;116527;-68
2022/02/19 09:02:34;;;;;;;;;;;;;;;16.38;37.46;99894.97;4929511;28;98705;-68
2022/02/19 09:05:00;;;;;;;;;;;;;;;16.44;37.51;99911.94;4915728;28;117646;-68
2022/02/19 09:07:27;;;;;;;;;;;;;;;16.48;37.47;99926.50;4916866;28;120590;-65
2022/02/19 09:09:53;;;;;;;;;;;;;;;16.52;37.63;99924.75;4917577;28;99056;-68
2022/02/19 09:12:20;;;;;;;;;;;;;;;16.56;37.50;99919.47;4919647;28;98210;-68
2022/02/19 09:14:46;;;;;;;;;;;;;;;16.60;37.55;99925.88;4918960;28;98294;-67
2022/02/19 09:17:12;;;;;;;;;;;;;;;16.61;37.55;99930.97;4918913;28;126882;-69
2022/02/19 09:19:38;;;;;;;;;;;;;;;16.60;37.69;99934.81;4924084;28;98475;-67
2022/02/19 09:22:04;;;;;;;;;;;;;;;16.58;37.74;99931.63;4937856;28;128265;-68
2022/02/19 09:24:30;;;;;;;;;;;;;;;16.59;37.78;99933.25;4937879;28;111332;-67
2022/02/19 09:26:56;;;;;;;;;;;;;;;16.60;37.89;99958.53;4936561;28;127564;-65
2022/02/19 09:29:23;;;;;;;;;;;;;;;16.58;37.93;99961.53;4934643;28;99449;-67
2022/02/19 09:31:49;;;;;;;;;;;;;;;16.54;37.94;99971.47;4918651;28;116003;-68
2022/02/19 09:34:15;;;;;;;;;;;;;;;16.54;38.02;99973.38;4924967;28;113959;-65
2022/02/19 09:36:41;;;;;;;;;;;;;;;16.54;37.91;99976.91;4911516;28;115600;-65
2022/02/19 09:39:07;;;;;;;;;;;;;;;16.54;38.02;99986.97;4916378;28;98516;-65
2022/02/19 09:41:33;;;;;;;;;;;;;;;16.53;38.14;99988.91;4917477;28;128579;-68
2022/02/19 09:44:03;;;;;;;;;;;;;;;16.51;38.29;99984.94;4915718;28;116769;-68
2022/02/19 09:46:30;;;;;;;;;;;;;;;16.51;38.24;99993.09;4918213;28;98428;-65
2022/02/19 09:48:56;;;;;;;;;;;;;;;16.49;38.06;99996.09;4919085;28;98496;-68
2022/02/19 09:51:22;;;;;;;;;;;;;;;16.47;38.24;100011.97;4902729;28;122702;-68
2022/02/19 09:53:48;;;;;;;;;;;;;;;16.47;38.18;100019.31;4917886;28;118428;-65
2022/02/19 09:56:13;;;;;;;;;;;;;;;16.47;38.11;100028.28;4918152;28;126299;-65
2022/02/19 09:58:43;;;;;;;;;;;;;;;16.51;38.09;100023.00;4925652;28;127859;-64
2022/02/19 10:01:16;;;;;;;;;;;;;;;16.54;38.35;100035.94;4919893;28;98598;-65
2022/02/19 10:03:43;;;;;;;;;;;;;;;16.56;38.19;100025.56;4930259;28;99765;-65
2022/02/19 10:06:13;;;;;;;;;;;;;;;16.63;38.02;100037.59;4921597;28;118861;-65
2022/02/19 10:08:39;;;;;;;;;;;;;;;16.74;38.10;100042.72;4923980;28;98626;-68
2022/02/19 10:11:04;;;;;;;;;;;;;;;16.90;37.71;100043.91;4918276;28;125025;-68
2022/02/19 10:13:34;;;;;;;;;;;;;;;17.01;37.61;100055.25;4930039;28;117246;-68
2022/02/19 10:16:04;;;;;;;;;;;;;;;17.07;37.94;100064.88;4937314;28;99332;-67
2022/02/19 10:18:32;;;;;;;;;;;;;;;17.13;37.71;100066.28;4926405;28;98633;-67
2022/02/19 10:21:24;;;;;;;;;;;;;;;17.37;37.57;100079.41;4931615;28;98544;-64
2022/02/19 10:23:56;;;;;;;;;;;;;;;17.42;37.54;100065.66;4929361;28;98056;-65
2022/02/19 10:26:22;;;;;;;;;;;;;;;17.46;37.61;100084.88;4936169;28;98620;-67
2022/02/19 10:29:01;;;;;;;;;;;;;;;17.63;37.70;100087.56;4918972;28;98675;-67
2022/02/19 10:31:27;;;;;;;;;;;;;;;17.77;37.47;100107.31;4937226;28;115162;-64
2022/02/19 10:34:16;;;;;;;;;;;;;;;17.96;37.39;100095.22;4935863;28;116337;-64
2022/02/19 10:36:45;;;;;;;;;;;;;;;18.05;37.39;100104.19;4936853;28;98377;-64
2022/02/19 10:39:11;;;;;;;;;;;;;;;18.07;37.66;100110.09;4936963;28;98313;-67
2022/02/19 10:41:38;;;;;;;;;;;;;;;18.06;37.54;100122.16;4936597;28;98652;-67
2022/02/19 10:44:19;;;;;;;;;;;;;;;18.02;37.70;100116.53;4931872;28;97916;-64
2022/02/19 10:46:45;;;;;;;;;;;;;;;18.02;37.66;100115.75;4918634;28;98893;-64
2022/02/19 10:49:11;;;;;;;;;;;;;;;17.99;37.74;100130.00;4924213;28;127414;-65
2022/02/19 10:51:37;;;;;;;;;;;;;;;17.91;38.11;100139.81;4921585;28;119774;-68
2022/02/19 10:54:08;;;;;;;;;;;;;;;17.82;38.00;100137.13;4915633;28;116925;-64
2022/02/19 10:56:34;;;;;;;;;;;;;;;17.74;38.17;100137.91;4917647;28;98358;-68
2022/02/19 10:59:13;;;;;;;;;;;;;;;17.70;38.29;100152.50;4934918;28;98160;-64
2022/02/19 11:01:43;;;;;;;;;;;;;;;17.63;38.35;100151.06;4922203;28;98984;-64
2022/02/19 11:04:09;;;;;;;;;;;;;;;17.60;38.44;100159.88;4916888;28;100265;-64
2022/02/19 11:06:36;;;;;;;;;;;;;;;17.55;38.35;100167.41;4922189;28;106498;-64
2022/02/19 11:09:02;;;;;;;;;;;;;;;17.55;38.41;100162.75;4933542;28;125637;-64
2022/02/19 11:11:28;;;;;;;;;;;;;;;17.57;38.44;100170.63;4936899;28;106558;-68
2022/02/19 11:13:57;;;;;;;;;;;;;;;17.71;38.09;100184.06;4936608;28;117927;-64
2022/02/19 11:16:24;;;;;;;;;;;;;;;17.69;38.26;100192.59;4926755;28;99019;-69
2022/02/19 11:18:50;;;;;;;;;;;;;;;17.75;38.15;100183.13;4922268;28;126067;-68
2022/02/19 11:21:16;;;;;;;;;;;;;;;17.86;37.97;100186.34;4934875;28;98202;-68
2022/02/19 11:23:42;;;;;;;;;;;;;;;17.87;37.99;100185.22;4920084;28;117547;-65
2022/02/19 11:26:08;;;;;;;;;;;;;;;17.95;37.86;100191.78;4914587;28;128242;-68
2022/02/19 11:28:35;;;;;;;;;;;;;;;18.00;37.98;100177.97;4929086;28;126361;-68
2022/02/19 11:31:02;;;;;;;;;;;;;;;18.00;38.00;100202.50;4934406;28;109053;-65
2022/02/19 11:33:29;;;;;;;;;;;;;;;18.01;38.03;100185.03;4928325;28;111421;-68
2022/02/19 11:35:59;;;;;;;;;;;;;;;17.95;37.90;100178.94;4921355;28;98877;-69
2022/02/19 11:38:32;;;;;;;;;;;;;;;17.87;38.20;100191.47;4936779;28;99067;-68
2022/02/19 11:41:09;;;;;;;;;;;;;;;17.93;37.93;100197.56;4935949;28;98196;-68
2022/02/19 11:43:38;;;;;;;;;;;;;;;17.90;38.26;100174.47;4924242;28;98105;-64
2022/02/19 11:46:16;;;;;;;;;;;;;;;17.89;38.15;100196.59;4928236;28;99011;-68
2022/02/19 11:48:43;;;;;;;;;;;;;;;17.92;38.12;100195.97;4922541;28;98572;-67
2022/02/19 11:51:18;;;;;;;;;;;;;;;17.95;38.11;100205.41;4918358;28;98362;-68
2022/02/19 11:53:46;;;;;;;;;;;;;;;18.09;37.97;100206.84;4926240;28;98411;-68
2022/02/19 11:56:25;;;;;;;;;;;;;;;18.27;37.74;100207.59;4935810;28;97951;-64
2022/02/19 11:58:53;;;;;;;;;;;;;;;18.25;37.92;100209.84;4931594;28;123328;-67
2022/02/19 12:01:19;;;;;;;;;;;;;;;18.21;38.03;100210.84;4916245;28;98450;-64
2022/02/19 12:03:45;;;;;;;;;;;;;;;18.12;38.24;100222.56;4912946;28;98189;-63
2022/02/19 12:06:23;;;;;;;;;;;;;;;18.02;38.25;100224.81;4919428;28;98896;-64
2022/02/19 12:08:52;;;;;;;;;;;;;;;17.95;38.54;100222.56;4915768;28;98806;-64
2022/02/19 12:11:25;;;;;;;;;;;;;;;17.91;38.54;100225.13;4918759;28;97947;-65
2022/02/19 12:13:55;;;;;;;;;;;;;;;17.96;38.42;100221.47;4916358;28;98165;-64
2022/02/19 12:16:44;;;;;;;;;;;;;;;17.99;38.53;100247.25;4917049;28;100372;-69
2022/02/19 12:19:11;;;;;;;;;;;;;;;18.03;38.31;100245.50;4924623;28;99227;-68
2022/02/19 12:21:44;;;;;;;;;;;;;;;18.01;38.37;100234.13;4917197;28;111778;-64
2022/02/19 12:24:21;;;;;;;;;;;;;;;17.93;38.53;100265.72;4933306;28;109309;-64
2022/02/19 12:26:57;;;;;;;;;;;;;;;17.91;38.43;100257.06;4918001;28;98597;-64
2022/02/19 12:29:26;;;;;;;;;;;;;;;17.86;38.25;100260.75;4916490;28;99064;-67
2022/02/19 12:32:08;;;;;;;;;;;;;;;17.80;38.50;100275.69;4918222;28;98264;-64
2022/02/19 12:34:36;;;;;;;;;;;;;;;17.85;38.35;100280.97;4929553;28;98068;-65
2022/02/19 12:37:02;;;;;;;;;;;;;;;17.89;38.22;100278.41;4924428;28;98629;-67
2022/02/19 12:39:28;;;;;;;;;;;;;;;17.88;38.23;100290.41;4915525;28;114322;-68
2022/02/19 12:41:55;;;;;;;;;;;;;;;17.97;38.09;100277.59;4917600;28;98037;-64
2022/02/19 12:44:21;;;;;;;;;;;;;;;18.09;37.89;100279.69;4920617;28;98119;-69